sensor_id;sensor_type;location;lat;lon;timestamp;P1;durP1;ratioP1;P2;durP2;ratioP2
52072;SDS011;38074;51.232;6.826;2023-03-01T00:02:34;0.95;;;0.47;;
52072;SDS011;38074;51.232;6.826;2023-03-01T00:09:50;0.85;;;0.45;;
52072;SDS011;38074;51.232;6.826;2023-03-01T00:17:05;0.97;;;0.47;;
52072;SDS011;38074;51.232;6.826;2023-03-01T00:24:21;1.17;;;0.60;;
52072;SDS011;38074;51.232;6.826;2023-03-01T00:31:36;0.87;;;0.43;;
52072;SDS011;38074;51.232;6.826;2023-03-01T00:38:53;0.82;;;0.35;;
52072;SDS011;38074;51.232;6.826;2023-03-01T00:46:13;0.60;;;0.50;;
52072;SDS011;38074;51.232;6.826;2023-03-01T00:53:30;0.73;;;0.43;;
52072;SDS011;38074;51.232;6.826;2023-03-01T01:00:45;1.07;;;0.50;;
52072;SDS011;38074;51.232;6.826;2023-03-01T01:08:01;1.20;;;0.47;;
52072;SDS011;38074;51.232;6.826;2023-03-01T01:15:16;0.83;;;0.57;;
52072;SDS011;38074;51.232;6.826;2023-03-01T01:22:32;0.65;;;0.40;;
52072;SDS011;38074;51.232;6.826;2023-03-01T01:29:48;1.17;;;0.70;;
52072;SDS011;38074;51.232;6.826;2023-03-01T01:37:03;1.33;;;0.50;;
52072;SDS011;38074;51.232;6.826;2023-03-01T01:44:23;0.77;;;0.40;;
52072;SDS011;38074;51.232;6.826;2023-03-01T01:51:41;0.88;;;0.40;;
52072;SDS011;38074;51.232;6.826;2023-03-01T01:58:59;1.00;;;0.60;;
52072;SDS011;38074;51.232;6.826;2023-03-01T02:06:21;1.17;;;0.70;;
52072;SDS011;38074;51.232;6.826;2023-03-01T02:13:44;0.88;;;0.60;;
52072;SDS011;38074;51.232;6.826;2023-03-01T02:28:30;1.27;;;0.82;;
52072;SDS011;38074;51.232;6.826;2023-03-01T02:35:47;1.20;;;0.60;;
52072;SDS011;38074;51.232;6.826;2023-03-01T02:43:03;1.67;;;0.73;;
52072;SDS011;38074;51.232;6.826;2023-03-01T02:57:45;0.90;;;0.60;;
52072;SDS011;38074;51.232;6.826;2023-03-01T03:05:07;1.33;;;0.50;;
52072;SDS011;38074;51.232;6.826;2023-03-01T03:12:25;1.15;;;0.73;;
52072;SDS011;38074;51.232;6.826;2023-03-01T03:19:40;0.97;;;0.70;;
52072;SDS011;38074;51.232;6.826;2023-03-01T03:27:00;0.88;;;0.68;;
52072;SDS011;38074;51.232;6.826;2023-03-01T03:34:15;1.43;;;0.87;;
52072;SDS011;38074;51.232;6.826;2023-03-01T03:41:34;1.30;;;0.80;;
52072;SDS011;38074;51.232;6.826;2023-03-01T03:48:50;1.00;;;0.68;;
52072;SDS011;38074;51.232;6.826;2023-03-01T03:56:06;1.20;;;0.70;;
52072;SDS011;38074;51.232;6.826;2023-03-01T04:03:21;0.88;;;0.55;;
52072;SDS011;38074;51.232;6.826;2023-03-01T04:10:39;1.60;;;1.00;;
52072;SDS011;38074;51.232;6.826;2023-03-01T04:17:58;1.08;;;0.70;;
52072;SDS011;38074;51.232;6.826;2023-03-01T04:25:14;1.10;;;0.55;;
52072;SDS011;38074;51.232;6.826;2023-03-01T04:32:29;1.00;;;0.50;;
52072;SDS011;38074;51.232;6.826;2023-03-01T04:39:45;1.47;;;0.87;;
52072;SDS011;38074;51.232;6.826;2023-03-01T04:47:01;0.80;;;0.50;;
52072;SDS011;38074;51.232;6.826;2023-03-01T04:54:16;0.80;;;0.60;;
52072;SDS011;38074;51.232;6.826;2023-03-01T05:01:32;1.30;;;0.50;;
52072;SDS011;38074;51.232;6.826;2023-03-01T05:08:47;1.00;;;0.60;;
52072;SDS011;38074;51.232;6.826;2023-03-01T05:16:04;1.40;;;0.80;;
52072;SDS011;38074;51.232;6.826;2023-03-01T05:23:20;0.90;;;0.60;;
52072;SDS011;38074;51.232;6.826;2023-03-01T05:30:36;1.17;;;0.77;;
52072;SDS011;38074;51.232;6.826;2023-03-01T05:37:53;1.38;;;0.73;;
52072;SDS011;38074;51.232;6.826;2023-03-01T05:45:10;1.23;;;0.60;;
52072;SDS011;38074;51.232;6.826;2023-03-01T05:52:27;1.00;;;0.70;;
52072;SDS011;38074;51.232;6.826;2023-03-01T05:59:42;1.00;;;0.60;;
52072;SDS011;38074;51.232;6.826;2023-03-01T06:06:58;0.70;;;0.53;;
52072;SDS011;38074;51.232;6.826;2023-03-01T06:14:13;1.07;;;0.60;;
52072;SDS011;38074;51.232;6.826;2023-03-01T06:21:29;1.05;;;0.68;;
52072;SDS011;38074;51.232;6.826;2023-03-01T06:28:45;1.13;;;0.73;;
52072;SDS011;38074;51.232;6.826;2023-03-01T06:36:01;1.08;;;0.52;;
52072;SDS011;38074;51.232;6.826;2023-03-01T06:43:16;1.55;;;0.98;;
52072;SDS011;38074;51.232;6.826;2023-03-01T06:50:32;4.10;;;1.70;;
52072;SDS011;38074;51.232;6.826;2023-03-01T06:57:48;8.18;;;2.80;;
52072;SDS011;38074;51.232;6.826;2023-03-01T07:05:08;5.93;;;2.05;;
52072;SDS011;38074;51.232;6.826;2023-03-01T07:12:24;4.90;;;2.35;;
52072;SDS011;38074;51.232;6.826;2023-03-01T07:19:39;8.38;;;2.03;;
52072;SDS011;38074;51.232;6.826;2023-03-01T07:26:55;5.30;;;2.00;;
52072;SDS011;38074;51.232;6.826;2023-03-01T07:34:10;5.35;;;1.90;;
52072;SDS011;38074;51.232;6.826;2023-03-01T07:41:26;4.90;;;1.58;;
52072;SDS011;38074;51.232;6.826;2023-03-01T07:48:42;5.40;;;1.73;;
52072;SDS011;38074;51.232;6.826;2023-03-01T07:56:01;6.43;;;1.80;;
52072;SDS011;38074;51.232;6.826;2023-03-01T08:03:23;6.13;;;1.70;;
52072;SDS011;38074;51.232;6.826;2023-03-01T08:10:39;3.63;;;1.60;;
52072;SDS011;38074;51.232;6.826;2023-03-01T08:17:54;4.37;;;1.57;;
52072;SDS011;38074;51.232;6.826;2023-03-01T08:25:10;2.80;;;1.50;;
52072;SDS011;38074;51.232;6.826;2023-03-01T08:32:25;3.07;;;1.50;;
52072;SDS011;38074;51.232;6.826;2023-03-01T08:39:41;2.33;;;1.10;;
52072;SDS011;38074;51.232;6.826;2023-03-01T08:46:56;2.30;;;1.10;;
52072;SDS011;38074;51.232;6.826;2023-03-01T08:54:14;2.30;;;1.25;;
52072;SDS011;38074;51.232;6.826;2023-03-01T09:01:33;1.92;;;1.10;;
52072;SDS011;38074;51.232;6.826;2023-03-01T09:08:49;4.95;;;1.25;;
52072;SDS011;38074;51.232;6.826;2023-03-01T09:16:06;2.13;;;1.00;;
52072;SDS011;38074;51.232;6.826;2023-03-01T09:23:22;1.95;;;1.20;;
52072;SDS011;38074;51.232;6.826;2023-03-01T09:30:37;2.13;;;1.10;;
52072;SDS011;38074;51.232;6.826;2023-03-01T09:37:53;1.57;;;0.80;;
52072;SDS011;38074;51.232;6.826;2023-03-01T09:45:14;1.83;;;1.00;;
52072;SDS011;38074;51.232;6.826;2023-03-01T09:53:20;2.58;;;1.10;;
52072;SDS011;38074;51.232;6.826;2023-03-01T10:00:35;1.52;;;0.82;;
52072;SDS011;38074;51.232;6.826;2023-03-01T10:08:13;1.58;;;0.82;;
52072;SDS011;38074;51.232;6.826;2023-03-01T10:15:43;1.95;;;1.13;;
52072;SDS011;38074;51.232;6.826;2023-03-01T10:23:03;1.55;;;0.80;;
52072;SDS011;38074;51.232;6.826;2023-03-01T10:30:34;1.73;;;0.80;;
52072;SDS011;38074;51.232;6.826;2023-03-01T10:52:54;1.50;;;0.80;;
52072;SDS011;38074;51.232;6.826;2023-03-01T11:07:37;1.42;;;0.75;;
52072;SDS011;38074;51.232;6.826;2023-03-01T11:30:20;1.20;;;0.80;;
52072;SDS011;38074;51.232;6.826;2023-03-01T11:45:38;1.52;;;0.77;;
52072;SDS011;38074;51.232;6.826;2023-03-01T12:16:06;1.63;;;0.95;;
52072;SDS011;38074;51.232;6.826;2023-03-01T12:47:04;1.75;;;0.65;;
52072;SDS011;38074;51.232;6.826;2023-03-01T12:54:33;1.10;;;0.70;;
52072;SDS011;38074;51.232;6.826;2023-03-01T13:09:14;1.55;;;0.70;;
52072;SDS011;38074;51.232;6.826;2023-03-01T13:16:40;1.27;;;0.70;;
52072;SDS011;38074;51.232;6.826;2023-03-01T13:24:03;1.23;;;0.60;;
52072;SDS011;38074;51.232;6.826;2023-03-01T13:38:45;1.48;;;0.90;;
52072;SDS011;38074;51.232;6.826;2023-03-01T13:46:20;1.70;;;0.82;;
52072;SDS011;38074;51.232;6.826;2023-03-01T13:53:42;1.55;;;0.50;;
52072;SDS011;38074;51.232;6.826;2023-03-01T14:01:01;1.45;;;0.73;;
52072;SDS011;38074;51.232;6.826;2023-03-01T14:08:23;1.33;;;0.63;;
52072;SDS011;38074;51.232;6.826;2023-03-01T14:15:46;1.73;;;0.82;;
52072;SDS011;38074;51.232;6.826;2023-03-01T14:23:20;0.65;;;0.50;;
52072;SDS011;38074;51.232;6.826;2023-03-01T14:30:37;1.30;;;0.70;;
52072;SDS011;38074;51.232;6.826;2023-03-01T14:37:56;1.40;;;0.82;;
52072;SDS011;38074;51.232;6.826;2023-03-01T14:45:12;2.05;;;0.60;;
52072;SDS011;38074;51.232;6.826;2023-03-01T14:52:48;2.23;;;0.63;;
52072;SDS011;38074;51.232;6.826;2023-03-01T15:00:07;3.00;;;0.60;;
52072;SDS011;38074;51.232;6.826;2023-03-01T15:07:27;1.02;;;0.52;;
52072;SDS011;38074;51.232;6.826;2023-03-01T15:14:46;1.88;;;0.63;;
52072;SDS011;38074;51.232;6.826;2023-03-01T15:22:03;1.58;;;0.52;;
52072;SDS011;38074;51.232;6.826;2023-03-01T15:29:30;2.83;;;0.68;;
52072;SDS011;38074;51.232;6.826;2023-03-01T15:36:48;2.10;;;0.60;;
52072;SDS011;38074;51.232;6.826;2023-03-01T15:44:18;2.70;;;0.80;;
52072;SDS011;38074;51.232;6.826;2023-03-01T15:51:44;1.65;;;0.60;;
52072;SDS011;38074;51.232;6.826;2023-03-01T15:59:01;1.20;;;0.67;;
52072;SDS011;38074;51.232;6.826;2023-03-01T16:06:17;1.43;;;0.67;;
52072;SDS011;38074;51.232;6.826;2023-03-01T16:13:32;1.33;;;0.60;;
52072;SDS011;38074;51.232;6.826;2023-03-01T16:20:48;1.10;;;0.50;;
52072;SDS011;38074;51.232;6.826;2023-03-01T16:28:03;1.60;;;0.50;;
52072;SDS011;38074;51.232;6.826;2023-03-01T16:35:23;2.38;;;0.50;;
52072;SDS011;38074;51.232;6.826;2023-03-01T16:42:38;1.00;;;0.60;;
52072;SDS011;38074;51.232;6.826;2023-03-01T16:49:54;1.07;;;0.40;;
52072;SDS011;38074;51.232;6.826;2023-03-01T16:57:10;1.17;;;0.55;;
52072;SDS011;38074;51.232;6.826;2023-03-01T17:04:25;2.23;;;0.50;;
52072;SDS011;38074;51.232;6.826;2023-03-01T17:11:41;1.00;;;0.60;;
52072;SDS011;38074;51.232;6.826;2023-03-01T17:18:56;1.27;;;0.50;;
52072;SDS011;38074;51.232;6.826;2023-03-01T17:26:12;1.40;;;0.70;;
52072;SDS011;38074;51.232;6.826;2023-03-01T17:33:28;0.95;;;0.43;;
52072;SDS011;38074;51.232;6.826;2023-03-01T17:40:47;0.90;;;0.40;;
52072;SDS011;38074;51.232;6.826;2023-03-01T17:48:03;0.65;;;0.30;;
52072;SDS011;38074;51.232;6.826;2023-03-01T18:02:36;1.33;;;0.52;;
52072;SDS011;38074;51.232;6.826;2023-03-01T18:09:51;0.97;;;0.50;;
52072;SDS011;38074;51.232;6.826;2023-03-01T18:17:07;0.90;;;0.40;;
52072;SDS011;38074;51.232;6.826;2023-03-01T18:24:25;0.90;;;0.70;;
52072;SDS011;38074;51.232;6.826;2023-03-01T18:31:41;0.83;;;0.53;;
52072;SDS011;38074;51.232;6.826;2023-03-01T18:38:56;1.10;;;0.40;;
52072;SDS011;38074;51.232;6.826;2023-03-01T18:46:12;1.17;;;0.50;;
52072;SDS011;38074;51.232;6.826;2023-03-01T18:53:28;5.33;;;0.90;;
52072;SDS011;38074;51.232;6.826;2023-03-01T19:00:43;1.53;;;0.50;;
52072;SDS011;38074;51.232;6.826;2023-03-01T19:07:59;1.97;;;0.60;;
52072;SDS011;38074;51.232;6.826;2023-03-01T19:15:14;3.60;;;0.50;;
52072;SDS011;38074;51.232;6.826;2023-03-01T19:22:30;2.90;;;0.63;;
52072;SDS011;38074;51.232;6.826;2023-03-01T19:29:46;2.90;;;1.00;;
52072;SDS011;38074;51.232;6.826;2023-03-01T19:37:01;1.93;;;0.70;;
52072;SDS011;38074;51.232;6.826;2023-03-01T19:44:17;1.73;;;0.53;;
52072;SDS011;38074;51.232;6.826;2023-03-01T19:51:33;2.65;;;0.88;;
52072;SDS011;38074;51.232;6.826;2023-03-01T20:06:12;5.10;;;1.83;;
52072;SDS011;38074;51.232;6.826;2023-03-01T20:13:29;4.40;;;1.65;;
52072;SDS011;38074;51.232;6.826;2023-03-01T20:20:48;3.08;;;1.10;;
52072;SDS011;38074;51.232;6.826;2023-03-01T20:28:04;4.57;;;1.30;;
52072;SDS011;38074;51.232;6.826;2023-03-01T20:35:20;2.97;;;1.00;;
52072;SDS011;38074;51.232;6.826;2023-03-01T20:42:36;2.92;;;1.30;;
52072;SDS011;38074;51.232;6.826;2023-03-01T20:49:51;1.95;;;1.08;;
52072;SDS011;38074;51.232;6.826;2023-03-01T20:57:07;2.13;;;1.00;;
52072;SDS011;38074;51.232;6.826;2023-03-01T21:04:23;3.28;;;1.00;;
52072;SDS011;38074;51.232;6.826;2023-03-01T21:11:38;2.70;;;1.10;;
52072;SDS011;38074;51.232;6.826;2023-03-01T21:18:54;2.27;;;1.07;;
52072;SDS011;38074;51.232;6.826;2023-03-01T21:26:16;3.28;;;0.82;;
52072;SDS011;38074;51.232;6.826;2023-03-01T21:33:37;2.60;;;0.95;;
52072;SDS011;38074;51.232;6.826;2023-03-01T21:40:54;3.33;;;1.00;;
52072;SDS011;38074;51.232;6.826;2023-03-01T21:48:09;3.37;;;1.17;;
52072;SDS011;38074;51.232;6.826;2023-03-01T21:55:24;2.77;;;1.27;;
52072;SDS011;38074;51.232;6.826;2023-03-01T22:02:40;2.97;;;1.10;;
52072;SDS011;38074;51.232;6.826;2023-03-01T22:09:55;2.00;;;1.10;;
52072;SDS011;38074;51.232;6.826;2023-03-01T22:17:11;2.23;;;0.90;;
52072;SDS011;38074;51.232;6.826;2023-03-01T22:24:26;1.93;;;0.90;;
52072;SDS011;38074;51.232;6.826;2023-03-01T22:31:42;2.33;;;0.85;;
52072;SDS011;38074;51.232;6.826;2023-03-01T22:38:58;3.22;;;1.10;;
52072;SDS011;38074;51.232;6.826;2023-03-01T22:46:16;3.43;;;1.00;;
52072;SDS011;38074;51.232;6.826;2023-03-01T22:53:33;2.22;;;0.90;;
52072;SDS011;38074;51.232;6.826;2023-03-01T23:00:48;1.33;;;0.60;;
52072;SDS011;38074;51.232;6.826;2023-03-01T23:08:04;1.05;;;0.70;;
52072;SDS011;38074;51.232;6.826;2023-03-01T23:15:19;1.43;;;0.73;;
52072;SDS011;38074;51.232;6.826;2023-03-01T23:22:35;2.30;;;0.80;;
52072;SDS011;38074;51.232;6.826;2023-03-01T23:29:52;1.77;;;0.83;;
52072;SDS011;38074;51.232;6.826;2023-03-01T23:37:07;1.80;;;0.90;;
52072;SDS011;38074;51.232;6.826;2023-03-01T23:44:24;2.13;;;0.80;;
52072;SDS011;38074;51.232;6.826;2023-03-01T23:51:40;2.85;;;0.90;;
52072;SDS011;38074;51.232;6.826;2023-03-01T23:58:59;1.40;;;0.73;;
